createdAt,value
2023-01-18T00:04:37.170Z,9.20
2023-01-18T00:10:39.450Z,9.20
2023-01-18T00:16:41.651Z,9.00
2023-01-18T00:22:43.645Z,8.90
2023-01-18T00:28:46.067Z,8.60
2023-01-18T00:34:50.503Z,8.40
2023-01-18T00:40:52.876Z,8.30
2023-01-18T00:46:56.557Z,8.10
2023-01-18T00:53:00.821Z,8.00
2023-01-18T00:59:03.489Z,7.90
2023-01-18T01:05:24.457Z,7.90
2023-01-18T01:11:26.773Z,7.80
2023-01-18T01:17:49.106Z,7.60
2023-01-18T01:24:10.047Z,7.50
2023-01-18T01:30:12.645Z,7.50
2023-01-18T01:36:20.652Z,7.40
2023-01-18T01:42:30.496Z,7.30
2023-01-18T01:48:32.861Z,7.30
2023-01-18T01:54:38.573Z,7.20
2023-01-18T02:00:41.379Z,7.10
2023-01-18T02:06:43.688Z,7.10
2023-01-18T02:12:49.857Z,6.90
2023-01-18T02:19:14.224Z,6.90
2023-01-18T02:25:46.900Z,6.90
2023-01-18T02:32:08.661Z,6.80
2023-01-18T02:38:19.427Z,6.80
2023-01-18T02:44:49.081Z,6.70
2023-01-18T02:50:51.701Z,6.70
2023-01-18T02:56:55.814Z,6.70
2023-01-18T03:02:59.970Z,6.70
2023-01-18T03:09:04.049Z,6.60
2023-01-18T03:15:40.272Z,6.60
2023-01-18T03:21:47.826Z,6.60
2023-01-18T03:28:11.233Z,6.60
2023-01-18T03:34:18.527Z,6.70
2023-01-18T03:40:24.891Z,6.70
2023-01-18T03:46:30.852Z,6.70
2023-01-18T03:52:42.322Z,6.70
2023-01-18T03:58:45.578Z,6.70
2023-01-18T04:04:49.639Z,6.70
2023-01-18T04:10:51.731Z,6.70
2023-01-18T04:16:53.857Z,6.70
2023-01-18T04:22:56.771Z,6.70
2023-01-18T04:28:59.545Z,6.70
2023-01-18T04:35:02.284Z,6.60
2023-01-18T04:41:05.200Z,6.60
2023-01-18T04:47:07.563Z,6.60
2023-01-18T04:53:09.641Z,6.60
2023-01-18T04:59:16.558Z,6.60
2023-01-18T05:05:18.645Z,6.50
2023-01-18T05:11:23.432Z,6.50
2023-01-18T05:17:30.673Z,6.50
2023-01-18T05:23:32.906Z,6.60
2023-01-18T05:29:35.058Z,6.70
2023-01-18T05:35:37.413Z,6.70
2023-01-18T05:41:39.730Z,6.90
2023-01-18T05:47:42.217Z,6.90
2023-01-18T05:53:44.290Z,7.00
2023-01-18T05:59:46.478Z,7.10
2023-01-18T06:05:49.051Z,7.20
2023-01-18T06:11:51.278Z,7.30
2023-01-18T06:17:53.405Z,7.40
2023-01-18T06:23:55.579Z,7.50
2023-01-18T06:29:58.170Z,7.60
2023-01-18T06:36:01.677Z,7.60
2023-01-18T06:42:03.862Z,7.80
2023-01-18T06:48:06.177Z,8.00
2023-01-18T06:54:09.008Z,8.30
2023-01-18T07:00:12.289Z,8.60
2023-01-18T07:06:14.399Z,9.10
2023-01-18T07:12:16.714Z,9.60
2023-01-18T07:18:18.957Z,10.40
2023-01-18T07:24:21.255Z,11.60
2023-01-18T07:30:23.994Z,13.40
2023-01-18T07:36:26.800Z,14.50
2023-01-18T07:42:29.485Z,19.50
2023-01-18T07:48:32.147Z,21.30
2023-01-18T07:54:34.334Z,23.50
2023-01-18T08:00:36.402Z,26.10
2023-01-18T08:06:38.489Z,25.40
2023-01-18T08:12:40.987Z,26.20
2023-01-18T08:18:45.463Z,24.60
2023-01-18T08:24:47.790Z,23.60
2023-01-18T08:30:54.522Z,23.20
2023-01-18T08:36:56.845Z,21.70
2023-01-18T08:43:00.090Z,23.90
2023-01-18T08:49:05.242Z,23.10
2023-01-18T08:55:08.125Z,22.60
2023-01-18T09:01:11.255Z,22.90
2023-01-18T09:07:13.675Z,20.60
2023-01-18T09:13:15.704Z,20.10
2023-01-18T09:19:18.244Z,20.10
2023-01-18T09:25:21.321Z,20.30
2023-01-18T09:31:26.090Z,20.10
2023-01-18T09:37:28.712Z,20.10
2023-01-18T09:43:48.665Z,20.20
2023-01-18T09:50:24.494Z,20.70
2023-01-18T09:56:32.000Z,21.40
2023-01-18T10:02:41.233Z,21.90
2023-01-18T10:08:55.043Z,22.10
2023-01-18T10:15:10.947Z,21.20
2023-01-18T10:21:27.154Z,21.10
2023-01-18T10:27:49.068Z,21.00
2023-01-18T10:33:55.737Z,21.00
2023-01-18T10:40:06.443Z,21.30
2023-01-18T10:46:20.179Z,21.30
2023-01-18T10:52:31.780Z,21.10
2023-01-18T10:58:40.432Z,21.30
2023-01-18T11:04:42.839Z,21.70
2023-01-18T11:10:45.710Z,21.70
2023-01-18T11:17:20.110Z,22.10
2023-01-18T11:23:28.773Z,21.90
2023-01-18T11:29:40.076Z,22.30
2023-01-18T11:35:43.155Z,22.60
2023-01-18T11:41:45.411Z,22.60
2023-01-18T11:48:00.063Z,22.50
2023-01-18T11:54:26.909Z,22.60
2023-01-18T12:00:38.012Z,22.90
2023-01-18T12:07:08.625Z,28.20
2023-01-18T12:13:39.599Z,26.60
2023-01-18T12:20:06.686Z,23.20
2023-01-18T12:26:46.925Z,22.70
2023-01-18T12:33:11.312Z,22.00
2023-01-18T12:39:34.963Z,22.30
2023-01-18T12:45:42.077Z,22.50
2023-01-18T12:51:47.914Z,21.20
2023-01-18T12:57:54.247Z,21.30
2023-01-18T13:04:07.519Z,21.10
2023-01-18T13:10:21.786Z,20.70
2023-01-18T13:16:44.734Z,20.50
2023-01-18T13:23:16.393Z,20.40
2023-01-18T13:29:24.318Z,20.30
2023-01-18T13:35:33.924Z,20.10
2023-01-18T13:41:36.450Z,19.90
2023-01-18T13:47:46.169Z,19.90
2023-01-18T13:53:50.601Z,19.80
2023-01-18T13:59:52.925Z,19.60
2023-01-18T14:05:57.545Z,19.40
2023-01-18T14:12:00.053Z,19.20
2023-01-18T14:18:01.993Z,19.10
2023-01-18T14:24:15.352Z,19.00
2023-01-18T14:30:21.594Z,18.90
2023-01-18T14:36:26.593Z,18.80
2023-01-18T14:42:28.877Z,18.50
2023-01-18T14:48:34.885Z,18.30
2023-01-18T14:54:37.535Z,18.20
2023-01-18T15:00:47.378Z,17.90
2023-01-18T15:06:57.005Z,17.80
2023-01-18T15:13:00.297Z,17.50
2023-01-18T15:19:03.421Z,17.40
2023-01-18T15:25:15.337Z,17.40
2023-01-18T15:31:17.670Z,17.20
2023-01-18T15:37:32.681Z,17.30
2023-01-18T15:43:42.350Z,17.20
2023-01-18T15:49:48.084Z,17.20
2023-01-18T15:55:58.826Z,17.10
2023-01-18T16:02:17.719Z,17.00
2023-01-18T16:08:22.281Z,16.90
2023-01-18T16:14:33.691Z,16.80
2023-01-18T16:20:36.303Z,16.80
2023-01-18T16:26:42.643Z,16.90
2023-01-18T16:32:44.944Z,16.90
2023-01-18T16:38:47.198Z,16.90
2023-01-18T16:44:49.564Z,16.80
2023-01-18T16:50:52.720Z,17.00
2023-01-18T16:56:55.317Z,17.00
2023-01-18T17:02:58.122Z,16.80
2023-01-18T17:09:01.003Z,16.70
2023-01-18T17:15:04.173Z,16.40
2023-01-18T17:21:06.462Z,16.30
2023-01-18T17:27:12.408Z,16.20
2023-01-18T17:33:20.843Z,15.90
2023-01-18T17:39:28.130Z,15.60
2023-01-18T17:45:42.219Z,15.20
2023-01-18T17:51:46.040Z,15.10
2023-01-18T17:57:48.207Z,15.00
2023-01-18T18:03:52.673Z,14.90
2023-01-18T18:10:00.485Z,14.70
2023-01-18T18:16:04.480Z,14.60
2023-01-18T18:22:06.931Z,14.50
2023-01-18T18:28:09.397Z,14.50
2023-01-18T18:34:12.494Z,14.40
2023-01-18T18:40:14.673Z,14.10
2023-01-18T18:46:16.942Z,14.10
2023-01-18T18:52:19.191Z,13.80
2023-01-18T18:58:22.775Z,13.70
2023-01-18T19:04:26.658Z,13.60
2023-01-18T19:10:30.640Z,13.40
2023-01-18T19:16:33.024Z,13.30
2023-01-18T19:22:38.448Z,13.10
2023-01-18T19:28:41.199Z,13.00
2023-01-18T19:34:43.404Z,12.90
2023-01-18T19:40:45.662Z,12.90
2023-01-18T19:46:47.873Z,12.70
2023-01-18T19:52:50.727Z,12.60
2023-01-18T19:58:53.056Z,12.70
2023-01-18T20:04:58.019Z,12.70
2023-01-18T20:11:08.889Z,12.70
2023-01-18T20:17:12.222Z,12.60
2023-01-18T20:23:14.403Z,12.60
2023-01-18T20:29:17.042Z,12.60
2023-01-18T20:35:19.050Z,12.60
2023-01-18T20:41:21.141Z,12.50
2023-01-18T20:47:23.451Z,12.50
2023-01-18T20:53:30.609Z,12.50
2023-01-18T20:59:33.545Z,12.40
2023-01-18T21:05:35.662Z,12.40
2023-01-18T21:11:38.148Z,12.30
2023-01-18T21:17:40.273Z,12.20
2023-01-18T21:23:42.543Z,12.10
2023-01-18T21:29:45.056Z,12.10
2023-01-18T21:35:47.325Z,12.00
2023-01-18T21:42:08.214Z,11.90
2023-01-18T21:48:10.402Z,11.80
2023-01-18T21:54:15.212Z,11.70
2023-01-18T22:00:17.736Z,11.60
2023-01-18T22:06:19.880Z,11.80
2023-01-18T22:12:25.500Z,11.90
2023-01-18T22:18:27.614Z,11.80
2023-01-18T22:24:29.751Z,11.60
2023-01-18T22:30:32.008Z,11.40
2023-01-18T22:36:34.534Z,11.20
2023-01-18T22:42:37.032Z,11.00
2023-01-18T22:48:40.255Z,11.10
2023-01-18T22:54:42.864Z,11.00
2023-01-18T23:00:45.937Z,11.00
2023-01-18T23:06:50.953Z,10.90
2023-01-18T23:12:53.842Z,11.20
2023-01-18T23:18:56.097Z,11.70
2023-01-18T23:24:58.341Z,11.90
2023-01-18T23:31:00.802Z,11.90
2023-01-18T23:37:02.972Z,11.90
2023-01-18T23:43:23.652Z,11.90
2023-01-18T23:49:44.305Z,11.80
2023-01-18T23:55:46.929Z,11.60
